Flight Track Log - Related Links

Times and Time Zones

All times are in EDT time to prevent confusion due to time zone crossing. See the DAL1760 flight status page for this flight to view local times or setup timezone preferences in your user account.

Time Position Orientation Groundspeed Altitude Reporting Facility
EDT Latitude Longitude Course Direction KTS MPH feet Rate Location/Type
12:12PM 33.9331 -118.4475 70° East 187 215 1,600  Level Los Angeles Center
12:13PM 33.9133 -118.5194 252° West 201 231 4,300 2,736 Climbing Los Angeles Center
12:14PM 33.8547 -118.5208 181° South 259 298 7,300 2,784 Climbing Los Angeles Center
12:15PM 34.1425 -117.7593 69° East  Level Estimated
12:15PM 33.8836 -118.4400 67° East 284 327 10,100  Level Los Angeles Center
12:16PM 34.1920 -117.5966 70° East  Level Estimated
12:16PM 33.9597 -118.4042 21° North 304 350 12,400  Level Los Angeles Center
12:17PM 34.2412 -117.4338 70° East  Level Estimated
12:17PM 34.0100 -118.2972 60° Northeast 366 421 14,100  Level Los Angeles Center
12:18PM 34.0725 -118.1858 56° Northeast 396 456 16,000 1,839 Climbing Los Angeles Center
12:19PM 34.1436 -118.0678 54° Northeast 430 495 17,900 1,776 Climbing Los Angeles Center
12:20PM 34.2136 -117.9422 56° Northeast 450 518 19,700 1,584 Climbing Los Angeles Center
12:21PM 34.2839 -117.8114 57° Northeast 459 528 21,200 1,694 Climbing Los Angeles Center
12:22PM 34.3708 -117.6558 56° Northeast 462 532 23,200 1,597 Climbing Los Angeles Center
12:24PM 34.4347 -117.5417 56° Northeast 475 547 24,500 1,355 Climbing Los Angeles Center
12:25PM 34.5275 -117.3739 56° Northeast 502 578 26,000 1,296 Climbing Los Angeles Center
12:26PM 34.6156 -117.2394 51° Northeast 514 592 27,200 1,152 Climbing Los Angeles Center
12:27PM 34.6936 -117.0897 58° Northeast 526 605 28,400 1,258 Climbing Los Angeles Center
12:28PM 34.7742 -116.9372 57° Northeast 537 618 29,800 1,306 Climbing Los Angeles Center
12:29PM 34.8533 -116.7844 58° Northeast 539 620 31,100 1,306 Climbing Los Angeles Center
12:30PM 34.9458 -116.5964 59° Northeast 541 623 32,500 1,152 Climbing Los Angeles Center
12:31PM 34.9672 -116.4114 82° East 551 634 33,500 912 Climbing Los Angeles Center
12:32PM 34.9744 -116.2222 87° East 553 636 34,400 726 Climbing Los Angeles Center
12:33PM 34.9842 -116.0353 86° East 556 640 35,000 290 Climbing Los Angeles Center
12:34PM 34.9914 -115.8461 87° East 558 642 35,000  Level Los Angeles Center
12:35PM 35.0158 -115.6214 82° East 559 643 35,000  Level Los Angeles Center
12:36PM 35.0361 -115.4361 82° East 558 642 35,000  Level Los Angeles Center
12:37PM 35.0572 -115.2283 83° East 558 642 35,000  Level Los Angeles Center
12:38PM 35.0764 -115.0450 83° East 554 638 35,000  Level Los Angeles Center
12:39PM 35.0950 -114.8600 83° East 553 636 35,000  Level Los Angeles Center
12:40PM 35.1133 -114.6747 83° East 553 636 35,000  Level Los Angeles Center
12:41PM 35.1314 -114.4908 83° East 553 636 35,000  Level Los Angeles Center
12:42PM 35.1489 -114.3061 83° East 552 635 35,000  Level Los Angeles Center
12:43PM 35.1689 -114.0825 84° East 552 635 35,000  Level Los Angeles Center
12:44PM 35.1842 -113.9008 84° East 552 635 35,000  Level Los Angeles Center
12:45PM 35.2008 -113.7100 84° East 562 647 35,000  Level Los Angeles Center
12:46PM 35.2186 -113.5242 83° East 560 644 35,000  Level Los Angeles Center
12:47PM 35.2353 -113.3333 84° East 559 643 35,000  Level Los Angeles Center
12:48PM 35.2547 -113.1078 84° East 556 640 35,000  Level Los Angeles Center
12:49PM 35.2669 -112.9467 85° East 557 641 35,000  Level Los Angeles Center
12:50PM 35.2769 -112.8206 84° East 561 646 35,000  Level Albuquerque Center
12:51PM 35.2919 -112.6389 84° East 560 644 35,000  Level Albuquerque Center
12:52PM 35.3094 -112.4161 84° East 557 641 35,000  Level Albuquerque Center
12:53PM 35.3236 -112.2272 85° East 557 641 35,000  Level Albuquerque Center
12:54PM 35.3372 -112.0397 85° East 557 641 35,000  Level Albuquerque Center
12:55PM 35.3517 -111.8522 85° East 557 641 35,000  Level Albuquerque Center
12:56PM 35.3644 -111.6639 85° East 557 641 35,000  Level Albuquerque Center
12:57PM 35.3819 -111.4394 84° East 557 641 35,000  Level Albuquerque Center
12:58PM 35.3942 -111.2475 85° East 557 641 35,000  Level Albuquerque Center
12:59PM 35.4061 -111.0661 85° East 557 641 35,000  Level Albuquerque Center
01:01PM 35.4317 -110.6742 85° East 557 641 35,000  Level Albuquerque Center
01:02PM 35.4444 -110.4636 86° East 557 641 35,000  Level Albuquerque Center
01:03PM 35.4561 -110.2842 85° East 557 641 35,000  Level Albuquerque Center
01:05PM 35.4689 -110.0747 86° East 556 640 35,000  Level Albuquerque Center
01:06PM 35.4797 -109.8939 86° East 556 640 35,000  Level Albuquerque Center
01:07PM 35.4925 -109.6825 86° East 556 640 35,000  Level Albuquerque Center
01:08PM 35.5028 -109.5000 86° East 557 641 35,000  Level Albuquerque Center
01:09PM 35.5131 -109.2861 87° East 563 648 35,000  Level Albuquerque Center
01:10PM 35.5239 -109.1028 86° East 564 649 35,000  Level Albuquerque Center
01:11PM 35.5339 -108.8900 87° East 564 649 35,000  Level Albuquerque Center
01:12PM 35.5422 -108.7061 87° East 564 649 35,000  Level Albuquerque Center
01:13PM 35.5533 -108.4908 86° East 565 650 35,000  Level Albuquerque Center
01:14PM 35.5625 -108.3028 87° East 573 659 35,000  Level Albuquerque Center
01:15PM 35.5714 -108.0872 87° East 573 659 35,000  Level Albuquerque Center
01:16PM 35.5789 -107.9019 87° East 571 657 35,000  Level Albuquerque Center
01:17PM 35.5864 -107.6861 87° East 571 657 35,000  Level Albuquerque Center
01:18PM 35.5933 -107.5006 87° East 571 657 35,000  Level Albuquerque Center
01:19PM 35.6022 -107.2831 87° East 571 657 35,000  Level Albuquerque Center
01:20PM 35.6064 -107.0831 88° East 573 659 35,000  Level Albuquerque Center
01:21PM 35.6131 -106.8756 88° East 570 656 35,000  Level Albuquerque Center
01:22PM 35.6203 -106.6794 87° East 570 656 35,000  Level Albuquerque Center
01:23PM 35.6267 -106.4861 88° East 570 656 35,000  Level Albuquerque Center
01:24PM 35.6314 -106.2750 88° East 572 658 35,000  Level Albuquerque Center
01:25PM 35.6386 -106.1050 87° East 569 655 35,000  Level Albuquerque Center
01:26PM 35.6442 -105.9133 88° East 567 652 35,000  Level Albuquerque Center
01:27PM 35.6500 -105.6836 88° East 565 650 35,000  Level Albuquerque Center
01:28PM 35.6528 -105.5119 89° East 558 642 35,000  Level Albuquerque Center
01:29PM 35.6550 -105.2908 89° East 553 636 35,000  Level Albuquerque Center
01:30PM 35.6608 -105.1011 88° East 551 634 35,000  Level Albuquerque Center
01:31PM 35.6908 -104.9186 79° East 542 624 35,000  Level Albuquerque Center
01:32PM 35.7192 -104.7336 79° East 540 621 35,000  Level Albuquerque Center
01:33PM 35.7461 -104.5506 80° East 540 621 35,000  Level Albuquerque Center
01:35PM 35.7733 -104.3683 80° East 537 618 35,000  Level Albuquerque Center
01:36PM 35.8008 -104.1836 80° East 537 618 35,000  Level Albuquerque Center
01:37PM 35.8264 -104.0006 80° East 537 618 35,000  Level Albuquerque Center
01:38PM 35.8533 -103.8136 80° East 540 621 35,000  Level Albuquerque Center
01:39PM 35.8844 -103.5978 80° East 541 623 35,000  Level Albuquerque Center
01:40PM 35.9100 -103.4106 80° East 545 627 35,000  Level Albuquerque Center
01:41PM 35.9350 -103.2236 81° East 545 627 35,000  Level Albuquerque Center
01:42PM 35.9611 -103.0358 80° East 545 627 35,000  Level Albuquerque Center
01:43PM 35.9872 -102.8400 81° East 547 629 35,000  Level Albuquerque Center
01:44PM 36.0111 -102.6528 81° East 549 632 35,000  Level Albuquerque Center
01:45PM 36.0369 -102.4661 80° East 549 632 35,000  Level Albuquerque Center
01:46PM 36.0603 -102.2786 81° East 550 633 35,000  Level Albuquerque Center
01:47PM 36.0844 -102.0925 81° East 549 632 35,000  Level Albuquerque Center
01:48PM 36.1114 -101.8694 81° East 549 632 35,000  Level Albuquerque Center
01:49PM 36.1361 -101.6856 80° East 546 628 35,000 290 Level Albuquerque Center
01:50PM 36.1592 -101.4986 81° East 543 625 35,600 774 Climbing Albuquerque Center
01:51PM 36.1814 -101.3122 82° East 544 626 36,600 677 Climbing Albuquerque Center
01:52PM 36.2036 -101.1194 82° East 544 626 37,000 194 Climbing Albuquerque Center
01:53PM 36.2242 -100.9400 82° East 532 612 37,000  Level Albuquerque Center
01:54PM 36.2411 -100.8031 81° East 534 615 37,000  Level Kansas City Center
01:55PM 36.2628 -100.6108 82° East 535 616 37,000  Level Kansas City Center
01:56PM 36.2836 -100.4261 82° East 538 619 37,000  Level Kansas City Center
01:57PM 36.3044 -100.2381 82° East 543 625 37,000  Level Kansas City Center
01:58PM 36.3244 -100.0492 82° East 547 629 37,000  Level Kansas City Center
01:59PM 36.3458 -99.8581 82° East 553 636 37,000  Level Kansas City Center
02:00PM 36.3764 -99.6700 79° East 553 636 37,000  Level Kansas City Center
02:01PM 36.4061 -99.4825 79° East 553 636 37,000  Level Kansas City Center
02:02PM 36.4367 -99.2939 79° East 553 636 37,000  Level Kansas City Center
02:03PM 36.4717 -99.0642 79° East 553 636 37,000  Level Kansas City Center
02:04PM 36.5006 -98.8742 79° East 554 638 37,000  Level Kansas City Center
02:05PM 36.5289 -98.6867 79° East 554 638 37,000  Level Kansas City Center
02:06PM 36.5558 -98.4969 80° East 554 638 37,000  Level Kansas City Center
02:07PM 36.5839 -98.3114 79° East 553 636 37,000  Level Kansas City Center
02:08PM 36.6111 -98.1256 80° East 550 633 37,000  Level Kansas City Center
02:09PM 36.6383 -97.9419 79° East 545 627 37,000  Level Kansas City Center
02:10PM 36.6683 -97.7258 80° East 543 625 37,000  Level Kansas City Center
02:11PM 36.6950 -97.5386 80° East 546 628 37,000  Level Kansas City Center
02:12PM 36.7181 -97.3664 80° East 547 629 37,000  Level Kansas City Center
02:14PM 36.7481 -97.1431 80° East 547 629 37,000  Level Kansas City Center
02:15PM 36.7772 -96.9850 77° East 538 619 37,000  Level Kansas City Center
02:16PM 36.8169 -96.7611 77° East 543 625 37,000  Level Kansas City Center
02:17PM 36.8486 -96.5747 78° East 544 626 37,000  Level Kansas City Center
02:18PM 36.8778 -96.3922 79° East 541 623 37,000  Level Kansas City Center
02:19PM 36.9092 -96.2086 78° East 540 621 37,000  Level Kansas City Center
02:20PM 36.9411 -96.0253 78° East 540 621 37,000  Level Kansas City Center
02:21PM 36.9711 -95.8425 78° East 538 619 37,000  Level Kansas City Center
02:22PM 37.0008 -95.6603 78° East 535 616 37,000  Level Kansas City Center
02:23PM 37.0364 -95.4803 76° East 531 611 37,000  Level Kansas City Center
02:24PM 37.0886 -95.2694 73° East 529 609 37,000  Level Kansas City Center
02:25PM 37.1333 -95.0936 72° East 527 606 37,000  Level Kansas City Center
02:26PM 37.1975 -94.9275 64° Northeast 528 608 37,000  Level Kansas City Center
02:27PM 37.2594 -94.7594 65° Northeast 528 608 37,000  Level Kansas City Center
02:28PM 37.3161 -94.5922 67° East 524 603 37,000  Level Kansas City Center
02:29PM 37.3736 -94.4231 67° East 524 603 37,000  Level Kansas City Center
02:30PM 37.4306 -94.2550 67° East 524 603 37,000  Level Kansas City Center
02:31PM 37.4942 -94.0717 66° East 524 603 37,000  Level Kansas City Center
02:32PM 37.5544 -93.9061 65° Northeast 523 602 37,000  Level Kansas City Center
02:33PM 37.6147 -93.7378 66° East 523 602 37,000  Level Kansas City Center
02:34PM 37.6708 -93.5644 68° East 529 609 37,000  Level Kansas City Center
02:35PM 37.7200 -93.3514 74° East 529 609 37,000  Level Kansas City Center
02:36PM 37.7528 -93.1706 77° East 529 609 37,000  Level Kansas City Center
02:37PM 37.7856 -92.9906 77° East 528 608 37,000  Level Kansas City Center
02:38PM 37.8183 -92.8083 77° East 528 608 37,000  Level Kansas City Center
02:39PM 37.8511 -92.6281 77° East 529 609 37,000  Level Kansas City Center
02:40PM 37.8831 -92.4475 77° East 530 610 37,000  Level Kansas City Center
02:41PM 37.9117 -92.2675 79° East 527 606 37,000  Level Kansas City Center
02:42PM 37.9514 -92.0628 76° East 525 604 37,000  Level Kansas City Center
02:43PM 37.9833 -91.8800 77° East 526 605 37,000  Level Kansas City Center
02:44PM 38.0158 -91.6983 77° East 527 606 37,000  Level Kansas City Center
02:46PM 38.0486 -91.5156 77° East 527 606 37,000  Level Kansas City Center
02:47PM 38.0836 -91.2961 78° East 528 608 37,000  Level Kansas City Center
02:48PM 38.1133 -91.1139 78° East 527 606 37,000  Level Kansas City Center
02:49PM 38.1450 -90.9286 78° East 527 606 37,000  Level Kansas City Center
02:50PM 38.1736 -90.7439 79° East 529 609 37,000  Level Kansas City Center
02:51PM 38.2025 -90.5619 79° East 530 610 37,000  Level Kansas City Center
02:52PM 38.2319 -90.3819 78° East 530 610 37,000  Level Kansas City Center
02:53PM 38.2650 -90.1711 79° East 520 598 37,000  Level Kansas City Center
02:54PM 38.2933 -89.9903 79° East 524 603 37,000  Level Kansas City Center
02:55PM 38.3211 -89.8097 79° East 528 608 37,000  Level Kansas City Center
02:56PM 38.3475 -89.6356 79° East 504 580 37,000  Level Kansas City Center
02:57PM 38.3733 -89.4664 79° East 494 568 37,000  Level Kansas City Center
02:58PM 38.4033 -89.2697 79° East 491 565 37,000  Level Kansas City Center
02:59PM 38.4172 -89.0856 84° East 488 562 37,000 -488 Level Kansas City Center
03:00PM 38.4053 -88.9156 95° East 484 557 36,000 -1,152 Descending Kansas City Center
03:01PM 38.3939 -88.7242 94° East 499 574 34,600 -1,317 Descending Kansas City Center
03:02PM 38.3842 -88.5600 94° East 509 586 33,300 -1,366 Descending Kansas City Center
03:03PM 38.3731 -88.3767 94° East 514 592 31,800 -1,104 Descending Kansas City Center
03:04PM 38.3631 -88.1981 94° East 509 586 31,000 -484 Descending Kansas City Center
03:05PM 38.3492 -87.9847 95° East 505 581 30,800 -508 Descending Kansas City Center
03:06PM 38.3639 -87.8078 84° East 502 578 29,900 -962 Descending Indianapolis Center
03:07PM 38.3881 -87.5933 82° East 504 580 28,700 -1,016 Descending Indianapolis Center
03:08PM 38.4086 -87.4136 82° East 504 580 27,800 -912 Descending Indianapolis Center
03:09PM 38.4289 -87.2317 82° East 506 582 26,800 -960 Descending Indianapolis Center
03:10PM 38.4489 -87.0444 82° East 512 589 25,800 -1,016 Descending Indianapolis Center
03:11PM 38.4678 -86.8594 83° East 513 590 24,700 -1,790 Descending Indianapolis Center
03:13PM 38.4858 -86.6808 83° East 510 587 22,100 -1,790 Descending Indianapolis Center
03:14PM 38.5039 -86.5114 82° East 489 563 21,000 -532 Descending Indianapolis Center
03:15PM 38.5208 -86.3428 83° East 481 554 21,000 -48 Level Indianapolis Center
03:16PM 38.5372 -86.1736 83° East 480 552 20,900 -532 Descending Indianapolis Center
03:17PM 38.5533 -86.0050 83° East 480 552 19,900 -1,403 Descending Indianapolis Center
03:18PM 38.5733 -85.8094 82° East 467 537 18,000 -2,419 Descending Indianapolis Center
03:19PM 38.5875 -85.6553 83° East 444 511 14,900 -2,855 Descending Indianapolis Center
03:20PM 38.6419 -85.5219 62° Northeast 424 488 12,100 -1,872 Descending Indianapolis Center
03:21PM 38.6994 -85.3958 60° Northeast 419 482 11,000 -528 Descending Indianapolis Center
03:22PM 38.7522 -85.2733 61° Northeast 409 471 11,000  Level Indianapolis Center
03:23PM 38.8042 -85.1525 61° Northeast 401 461 11,000  Level Indianapolis Center
03:24PM 38.8561 -85.0314 61° Northeast 395 455 11,000 -145 Level Indianapolis Center
03:25PM 38.9156 -84.8958 61° Northeast 372 428 10,700 -581 Descending Indianapolis Center
03:26PM 38.9553 -84.7994 62° Northeast 307 353 9,800 -1,016 Descending Indianapolis Center
03:27PM 39.0283 -84.7794 12° North 279 321 8,600 -1,322 Descending Indianapolis Center
03:28PM 39.1000 -84.7833 358° North 260 299 7,200 -1,293 Descending Cincinnati TRACON
03:29PM 39.1667 -84.7667 11° North 225 259 6,100 -1,438 Descending Cincinnati TRACON
03:30PM 39.2000 -84.7167 49° Northeast 207 238 4,300 -1,631 Descending Cincinnati TRACON
03:31PM 39.1667 -84.6833 142° Southeast 185 213 3,300 -1,118 Descending Cincinnati TRACON
03:32PM 39.1333 -84.6667 159° South 169 194 2,400 -900 Descending Cincinnati TRACON

Login

Don't have an account? Register now (free) for customized features, flight alerts, and more!